Aviation Digital Data Service (ADDS)

Output produced by METARs form (1739 UTC 27 May 2017)
found at http://www.aviationweather.gov/adds/metars/
 
UBBB 271730Z 30008KT CAVOK 18/14 Q1011 R88/D NOSIG
TAF UBBB 271707Z 2718/2818 32012KT 9999 SCT012 FEW050CB BKN100 TX22/2810Z TN14/2802Z 
     PROB40 
     TEMPO 2718/2724 -TSRA SCT007 SCT040CB BKN040 
     TEMPO 2806/2815 35016KT
       
UBBG 271730Z 30011KT 260V340 9999 -TSRA SCT030CB OVC066 19/17 Q1012 R30/290060 NOSIG
TAF UBBG 271700Z 2718/2818 VRB04KT 9999 SCT030CB BKN070 TX25/2712Z TN16/2802Z 
     TEMPO 2718/2721 VRB16KT -TSRA 
     TEMPO 2721/2723 26010KT -SHRA 
     BECMG 2723/2801 FEW040 SCT100
       
UBBL 271700Z 15004KT 9999 SCT100 20/18 Q1010 R15/CLRD// RMK MT OP
TAF UBBL 271714Z 2718/2818 14006KT 8000 FEW040CB SCT080 TX25/2810Z TN14/2802Z 
     TEMPO 2718/2724 -SHRA SCT020CB BKN020
       
UBBN 271730Z 31002KT 9999 FEW100 19/10 Q1009 R14R/CLRD// NOSIG RMK MT OP QFE682
TAF COR UBBN 271702Z 2718/2818 24010KT 999 FEW050 SCT100 TX26/2811Z TN12/2802Z 
     TEMPO 2718/2802 08010KT
       
UBBQ 271700Z 16003KT 9999 VCTS SCT040CB BKN100 18/17 Q1011 R34/CLRD// TEMPO TS SCT030CB RMK MT OBSC
TAF UBBQ 271709Z 2718/2818 16006KT 9999 SCT030 FEW050CB BKN100 TX25/2810Z TN12/2802Z 
     TEMPO 2718/2724 VRB18KT -TSRA SCT012 SCT030CB OVC030
       
UBBY 271700Z 02005KT 9999 -SHRA SCT040CB OVC080 18/16 Q1015 R33/////// NOSIG RMK MT OP
TAF UBBY 271700Z 2718/2803 VRB04KT 9999 SCT040CB BKN070 
     TEMPO 2718/2722 -TSRA 
       
UBEE 271500Z 33003KT 9999 FEW026CB BKN100 23/19 Q1009 R30/CLRD// NOSIG
TAF UBEE 271400Z 2715/2724 VRB04KT 9999 SCT030CB BKN070 
     TEMPO 2715/2720 -TSRA SCT030CB BKN050
       
UBBB 271730Z 30008KT CAVOK 18/14 Q1011 R88/D NOSIG
TAF UBBB 271707Z 2718/2818 32012KT 9999 SCT012 FEW050CB BKN100 TX22/2810Z TN14/2802Z 
     PROB40 
     TEMPO 2718/2724 -TSRA SCT007 SCT040CB BKN040 
     TEMPO 2806/2815 35016KT
       
UBBG 271730Z 30011KT 260V340 9999 -TSRA SCT030CB OVC066 19/17 Q1012 R30/290060 NOSIG
TAF UBBG 271700Z 2718/2818 VRB04KT 9999 SCT030CB BKN070 TX25/2712Z TN16/2802Z 
     TEMPO 2718/2721 VRB16KT -TSRA 
     TEMPO 2721/2723 26010KT -SHRA 
     BECMG 2723/2801 FEW040 SCT100